sensor_id;sensor_type;location;lat;lon;timestamp;pressure;altitude;pressure_sealevel;temperature;humidity
6851;BME280;3464;42.728;23.296;2023-03-31T00:13:22;95220.16;;;13.87;48.44
6851;BME280;3464;42.728;23.296;2023-03-31T00:16:02;95223.66;;;13.55;48.74
6851;BME280;3464;42.728;23.296;2023-03-31T00:51:23;95199.70;;;14.29;46.73
6851;BME280;3464;42.728;23.296;2023-03-31T02:35:30;95260.08;;;14.26;50.48
6851;BME280;3464;42.728;23.296;2023-03-31T02:38:01;95267.20;;;14.34;50.08
6851;BME280;3464;42.728;23.296;2023-03-31T02:40:33;95264.18;;;14.43;51.28
6851;BME280;3464;42.728;23.296;2023-03-31T02:43:19;95262.08;;;14.42;50.89
6851;BME280;3464;42.728;23.296;2023-03-31T02:46:01;95261.46;;;14.69;50.48
6851;BME280;3464;42.728;23.296;2023-03-31T02:48:39;95257.71;;;14.62;50.79
6851;BME280;3464;42.728;23.296;2023-03-31T02:51:40;95244.67;;;14.59;50.95
6851;BME280;3464;42.728;23.296;2023-03-31T02:54:11;95241.92;;;14.84;50.85
6851;BME280;3464;42.728;23.296;2023-03-31T03:08:35;95217.50;;;15.21;49.68
6851;BME280;3464;42.728;23.296;2023-03-31T03:14:30;95208.16;;;15.25;49.83
6851;BME280;3464;42.728;23.296;2023-03-31T03:19:42;95197.08;;;15.37;49.53
6851;BME280;3464;42.728;23.296;2023-03-31T03:22:10;95192.83;;;15.39;49.50
6851;BME280;3464;42.728;23.296;2023-03-31T03:28:05;95193.70;;;15.38;50.41
6851;BME280;3464;42.728;23.296;2023-03-31T03:36:52;95192.56;;;15.62;49.96
6851;BME280;3464;42.728;23.296;2023-03-31T03:39:44;95196.95;;;15.83;50.19
6851;BME280;3464;42.728;23.296;2023-03-31T03:45:41;95191.25;;;15.26;51.22
6851;BME280;3464;42.728;23.296;2023-03-31T03:51:38;95185.75;;;15.28;51.22
6851;BME280;3464;42.728;23.296;2023-03-31T03:54:19;95184.94;;;15.24;51.58
6851;BME280;3464;42.728;23.296;2023-03-31T04:16:32;95192.34;;;14.55;54.56
6851;BME280;3464;42.728;23.296;2023-03-31T04:19:03;95193.61;;;14.55;54.67
6851;BME280;3464;42.728;23.296;2023-03-31T04:21:29;95196.80;;;14.78;54.19
6851;BME280;3464;42.728;23.296;2023-03-31T04:23:56;95187.72;;;14.99;54.09
6851;BME280;3464;42.728;23.296;2023-03-31T04:26:25;95187.48;;;15.21;53.49
6851;BME280;3464;42.728;23.296;2023-03-31T04:28:54;95189.22;;;15.19;53.47
6851;BME280;3464;42.728;23.296;2023-03-31T04:31:23;95190.80;;;15.29;53.56
6851;BME280;3464;42.728;23.296;2023-03-31T04:33:52;95187.22;;;15.08;53.83
6851;BME280;3464;42.728;23.296;2023-03-31T04:36:18;95182.88;;;15.19;53.76
6851;BME280;3464;42.728;23.296;2023-03-31T04:38:48;95178.02;;;14.98;54.18
6851;BME280;3464;42.728;23.296;2023-03-31T04:41:19;95173.91;;;14.86;54.34
6851;BME280;3464;42.728;23.296;2023-03-31T04:43:47;95172.51;;;14.99;54.29
6851;BME280;3464;42.728;23.296;2023-03-31T04:46:15;95169.44;;;15.11;54.20
6851;BME280;3464;42.728;23.296;2023-03-31T04:57:56;95170.13;;;15.24;55.14
6851;BME280;3464;42.728;23.296;2023-03-31T05:00:26;95163.87;;;15.19;55.36
6851;BME280;3464;42.728;23.296;2023-03-31T05:02:58;95164.20;;;15.26;55.16
6851;BME280;3464;42.728;23.296;2023-03-31T05:05:28;95161.98;;;15.34;54.98
6851;BME280;3464;42.728;23.296;2023-03-31T05:07:57;95156.08;;;15.34;54.94
6851;BME280;3464;42.728;23.296;2023-03-31T05:10:24;95152.16;;;15.46;54.78
6851;BME280;3464;42.728;23.296;2023-03-31T05:12:54;95144.34;;;15.64;54.62
6851;BME280;3464;42.728;23.296;2023-03-31T05:15:21;95147.23;;;15.68;54.43
6851;BME280;3464;42.728;23.296;2023-03-31T05:18:00;95147.48;;;15.81;54.58
6851;BME280;3464;42.728;23.296;2023-03-31T05:21:08;95154.30;;;16.08;54.32
6851;BME280;3464;42.728;23.296;2023-03-31T05:23:35;95144.33;;;16.24;54.28
6851;BME280;3464;42.728;23.296;2023-03-31T05:26:07;95134.03;;;16.33;53.83
6851;BME280;3464;42.728;23.296;2023-03-31T05:29:07;95139.48;;;16.89;52.79
6851;BME280;3464;42.728;23.296;2023-03-31T05:31:35;95129.09;;;17.22;52.17
6851;BME280;3464;42.728;23.296;2023-03-31T05:34:08;95123.31;;;17.78;51.19
6851;BME280;3464;42.728;23.296;2023-03-31T05:39:58;95125.97;;;17.92;48.48
6851;BME280;3464;42.728;23.296;2023-03-31T05:42:27;95119.27;;;18.08;47.60
6851;BME280;3464;42.728;23.296;2023-03-31T05:44:53;95116.23;;;19.14;46.45
6851;BME280;3464;42.728;23.296;2023-03-31T05:47:21;95117.52;;;20.02;44.28
6851;BME280;3464;42.728;23.296;2023-03-31T05:49:49;95123.58;;;20.14;42.33
6851;BME280;3464;42.728;23.296;2023-03-31T05:52:16;95130.27;;;19.88;42.26
6851;BME280;3464;42.728;23.296;2023-03-31T05:54:43;95134.17;;;18.77;43.18
6851;BME280;3464;42.728;23.296;2023-03-31T06:00:31;95136.97;;;18.13;44.48
6851;BME280;3464;42.728;23.296;2023-03-31T06:06:19;95139.81;;;18.00;45.33
6851;BME280;3464;42.728;23.296;2023-03-31T06:08:52;95138.33;;;18.28;45.11
6851;BME280;3464;42.728;23.296;2023-03-31T06:11:23;95145.80;;;18.54;44.36
6851;BME280;3464;42.728;23.296;2023-03-31T06:13:52;95142.96;;;18.66;44.43
6851;BME280;3464;42.728;23.296;2023-03-31T06:16:19;95140.38;;;19.34;44.34
6851;BME280;3464;42.728;23.296;2023-03-31T06:18:46;95133.41;;;19.06;43.54
6851;BME280;3464;42.728;23.296;2023-03-31T06:21:14;95133.97;;;19.50;43.47
6851;BME280;3464;42.728;23.296;2023-03-31T06:23:39;95132.36;;;19.61;42.67
6851;BME280;3464;42.728;23.296;2023-03-31T06:26:06;95130.05;;;19.82;42.21
6851;BME280;3464;42.728;23.296;2023-03-31T06:28:34;95130.48;;;19.67;42.34
6851;BME280;3464;42.728;23.296;2023-03-31T06:31:04;95130.94;;;20.50;41.47
6851;BME280;3464;42.728;23.296;2023-03-31T06:33:31;95124.50;;;21.52;40.62
6851;BME280;3464;42.728;23.296;2023-03-31T06:35:59;95126.08;;;22.02;39.39
6851;BME280;3464;42.728;23.296;2023-03-31T06:38:28;95122.28;;;22.97;38.55
6851;BME280;3464;42.728;23.296;2023-03-31T06:40:58;95123.33;;;23.72;36.11
6851;BME280;3464;42.728;23.296;2023-03-31T06:43:25;95115.10;;;26.15;34.75
6851;BME280;3464;42.728;23.296;2023-03-31T06:46:00;95117.31;;;26.38;32.47
6851;BME280;3464;42.728;23.296;2023-03-31T06:48:29;95124.61;;;25.90;32.65
6851;BME280;3464;42.728;23.296;2023-03-31T06:50:58;95129.14;;;24.68;33.35
6851;BME280;3464;42.728;23.296;2023-03-31T06:53:24;95124.02;;;25.02;33.45
6851;BME280;3464;42.728;23.296;2023-03-31T06:55:51;95131.36;;;23.83;34.74
6851;BME280;3464;42.728;23.296;2023-03-31T06:58:17;95127.29;;;22.69;35.84
6851;BME280;3464;42.728;23.296;2023-03-31T07:00:44;95119.70;;;22.12;36.55
6851;BME280;3464;42.728;23.296;2023-03-31T07:03:11;95104.70;;;22.46;36.39
6851;BME280;3464;42.728;23.296;2023-03-31T07:05:39;95097.16;;;22.53;36.28
6851;BME280;3464;42.728;23.296;2023-03-31T07:08:05;95089.96;;;24.08;34.66
6851;BME280;3464;42.728;23.296;2023-03-31T07:10:32;95077.54;;;26.03;32.53
6851;BME280;3464;42.728;23.296;2023-03-31T07:13:00;95066.87;;;26.24;32.17
6851;BME280;3464;42.728;23.296;2023-03-31T07:15:26;95054.98;;;25.43;32.80
6851;BME280;3464;42.728;23.296;2023-03-31T07:17:55;95054.29;;;25.31;33.26
6851;BME280;3464;42.728;23.296;2023-03-31T07:20:20;95065.50;;;24.96;33.50
6851;BME280;3464;42.728;23.296;2023-03-31T07:22:47;95069.28;;;23.73;34.55
6851;BME280;3464;42.728;23.296;2023-03-31T07:25:14;95073.49;;;23.07;35.56
6851;BME280;3464;42.728;23.296;2023-03-31T07:27:40;95069.00;;;23.51;35.41
6851;BME280;3464;42.728;23.296;2023-03-31T07:30:08;95066.11;;;23.58;35.54
6851;BME280;3464;42.728;23.296;2023-03-31T07:32:35;95073.03;;;23.66;35.25
6851;BME280;3464;42.728;23.296;2023-03-31T07:35:01;95067.64;;;23.71;34.92
6851;BME280;3464;42.728;23.296;2023-03-31T07:37:29;95070.06;;;23.27;35.79
6851;BME280;3464;42.728;23.296;2023-03-31T07:39:55;95064.50;;;22.98;36.42
6851;BME280;3464;42.728;23.296;2023-03-31T07:42:22;95062.32;;;22.79;36.64
6851;BME280;3464;42.728;23.296;2023-03-31T07:44:49;95065.80;;;23.74;35.68
6851;BME280;3464;42.728;23.296;2023-03-31T07:47:16;95067.91;;;23.47;35.66
6851;BME280;3464;42.728;23.296;2023-03-31T07:49:42;95067.59;;;23.15;36.94
6851;BME280;3464;42.728;23.296;2023-03-31T07:52:09;95059.34;;;23.18;36.27
6851;BME280;3464;42.728;23.296;2023-03-31T07:54:36;95066.16;;;22.89;36.61
6851;BME280;3464;42.728;23.296;2023-03-31T07:57:03;95065.20;;;22.71;36.59
6851;BME280;3464;42.728;23.296;2023-03-31T07:59:29;95071.31;;;22.68;36.52
6851;BME280;3464;42.728;23.296;2023-03-31T08:01:56;95063.95;;;22.28;37.05
6851;BME280;3464;42.728;23.296;2023-03-31T08:04:23;95062.16;;;22.82;36.64
6851;BME280;3464;42.728;23.296;2023-03-31T08:06:50;95058.61;;;22.85;36.47
6851;BME280;3464;42.728;23.296;2023-03-31T08:09:16;95055.45;;;23.57;35.79
6851;BME280;3464;42.728;23.296;2023-03-31T08:11:45;95057.13;;;22.49;36.35
6851;BME280;3464;42.728;23.296;2023-03-31T08:17:01;95043.03;;;22.06;36.80
6851;BME280;3464;42.728;23.296;2023-03-31T08:19:30;95045.13;;;22.60;36.49
6851;BME280;3464;42.728;23.296;2023-03-31T08:21:57;95043.58;;;22.57;36.43
6851;BME280;3464;42.728;23.296;2023-03-31T08:24:26;95042.14;;;23.00;36.15
6851;BME280;3464;42.728;23.296;2023-03-31T08:26:54;95040.37;;;22.51;36.79
6851;BME280;3464;42.728;23.296;2023-03-31T08:29:20;95042.81;;;22.54;36.79
6851;BME280;3464;42.728;23.296;2023-03-31T08:31:48;95037.64;;;22.44;36.86
6851;BME280;3464;42.728;23.296;2023-03-31T08:34:15;95042.20;;;22.37;37.31
6851;BME280;3464;42.728;23.296;2023-03-31T08:36:43;95035.11;;;23.04;36.62
6851;BME280;3464;42.728;23.296;2023-03-31T08:39:10;95043.02;;;22.38;36.95
6851;BME280;3464;42.728;23.296;2023-03-31T08:41:53;95033.98;;;22.61;36.73
6851;BME280;3464;42.728;23.296;2023-03-31T08:44:30;95036.77;;;22.24;37.16
6851;BME280;3464;42.728;23.296;2023-03-31T08:47:01;95029.78;;;22.69;36.69
6851;BME280;3464;42.728;23.296;2023-03-31T08:49:27;95028.72;;;23.13;36.10
6851;BME280;3464;42.728;23.296;2023-03-31T08:51:56;95020.50;;;23.35;36.30
6851;BME280;3464;42.728;23.296;2023-03-31T08:54:39;95018.22;;;22.79;35.81
6851;BME280;3464;42.728;23.296;2023-03-31T08:57:13;95019.62;;;23.06;35.29
6851;BME280;3464;42.728;23.296;2023-03-31T08:59:37;95013.58;;;22.78;35.23
6851;BME280;3464;42.728;23.296;2023-03-31T09:02:42;94996.62;;;23.51;35.42
6851;BME280;3464;42.728;23.296;2023-03-31T09:04:57;94999.13;;;23.43;35.01
6851;BME280;3464;42.728;23.296;2023-03-31T09:10:15;95001.36;;;23.03;34.56
6851;BME280;3464;42.728;23.296;2023-03-31T09:12:43;95001.48;;;22.71;35.25
6851;BME280;3464;42.728;23.296;2023-03-31T09:15:09;95000.60;;;23.10;34.86
6851;BME280;3464;42.728;23.296;2023-03-31T09:17:41;94993.81;;;22.60;35.02
6851;BME280;3464;42.728;23.296;2023-03-31T09:20:14;95000.51;;;22.64;35.38
6851;BME280;3464;42.728;23.296;2023-03-31T09:22:40;94994.77;;;23.17;34.66
6851;BME280;3464;42.728;23.296;2023-03-31T09:25:10;95005.38;;;22.70;34.93
6851;BME280;3464;42.728;23.296;2023-03-31T09:27:39;94997.22;;;22.60;35.39
6851;BME280;3464;42.728;23.296;2023-03-31T09:30:13;94999.49;;;22.96;35.29
6851;BME280;3464;42.728;23.296;2023-03-31T09:32:38;94987.72;;;23.31;34.46
6851;BME280;3464;42.728;23.296;2023-03-31T09:35:16;94990.33;;;23.10;35.00
6851;BME280;3464;42.728;23.296;2023-03-31T09:37:44;94985.13;;;23.40;34.37
6851;BME280;3464;42.728;23.296;2023-03-31T09:40:17;94990.22;;;23.23;34.71
6851;BME280;3464;42.728;23.296;2023-03-31T09:42:44;94984.30;;;23.77;33.88
6851;BME280;3464;42.728;23.296;2023-03-31T09:45:15;94976.30;;;24.78;33.63
6851;BME280;3464;42.728;23.296;2023-03-31T09:47:43;94969.69;;;25.15;33.25
6851;BME280;3464;42.728;23.296;2023-03-31T09:50:10;94969.95;;;24.68;33.60
6851;BME280;3464;42.728;23.296;2023-03-31T09:52:43;94957.13;;;25.09;32.89
6851;BME280;3464;42.728;23.296;2023-03-31T09:55:26;94962.48;;;25.13;33.18
6851;BME280;3464;42.728;23.296;2023-03-31T09:57:51;94961.82;;;25.80;31.57
6851;BME280;3464;42.728;23.296;2023-03-31T10:00:19;94959.92;;;25.28;32.11
6851;BME280;3464;42.728;23.296;2023-03-31T10:02:48;94957.58;;;24.84;32.54
6851;BME280;3464;42.728;23.296;2023-03-31T10:05:36;94949.81;;;25.25;32.40
6851;BME280;3464;42.728;23.296;2023-03-31T10:10:51;94951.98;;;24.59;33.39
6851;BME280;3464;42.728;23.296;2023-03-31T10:13:22;94943.97;;;25.06;33.02
6851;BME280;3464;42.728;23.296;2023-03-31T10:15:46;94938.84;;;25.29;32.94
6851;BME280;3464;42.728;23.296;2023-03-31T10:18:14;94929.72;;;25.32;33.38
6851;BME280;3464;42.728;23.296;2023-03-31T10:20:42;94930.03;;;25.09;32.83
6851;BME280;3464;42.728;23.296;2023-03-31T10:23:29;94936.11;;;24.59;33.96
6851;BME280;3464;42.728;23.296;2023-03-31T10:25:55;94936.58;;;24.67;33.06
6851;BME280;3464;42.728;23.296;2023-03-31T10:28:22;94929.64;;;25.72;32.18
6851;BME280;3464;42.728;23.296;2023-03-31T10:30:54;94931.28;;;25.34;32.61
6851;BME280;3464;42.728;23.296;2023-03-31T10:33:59;94929.77;;;24.98;32.81
6851;BME280;3464;42.728;23.296;2023-03-31T10:36:50;94917.80;;;25.29;32.49
6851;BME280;3464;42.728;23.296;2023-03-31T10:39:18;94916.59;;;25.98;32.37
6851;BME280;3464;42.728;23.296;2023-03-31T10:41:50;94912.41;;;24.78;32.86
6851;BME280;3464;42.728;23.296;2023-03-31T10:44:38;94909.91;;;25.48;32.30
6851;BME280;3464;42.728;23.296;2023-03-31T10:47:16;94907.73;;;25.72;31.79
6851;BME280;3464;42.728;23.296;2023-03-31T10:49:42;94900.08;;;25.55;31.93
6851;BME280;3464;42.728;23.296;2023-03-31T10:52:25;94900.41;;;24.44;32.91
6851;BME280;3464;42.728;23.296;2023-03-31T10:54:53;94900.58;;;24.90;32.66
6851;BME280;3464;42.728;23.296;2023-03-31T10:57:20;94894.36;;;24.37;33.26
6851;BME280;3464;42.728;23.296;2023-03-31T10:59:50;94894.28;;;23.78;33.68
6851;BME280;3464;42.728;23.296;2023-03-31T11:05:13;94893.95;;;24.28;33.45
6851;BME280;3464;42.728;23.296;2023-03-31T11:08:15;94892.86;;;23.45;34.01
6851;BME280;3464;42.728;23.296;2023-03-31T11:10:43;94884.81;;;22.78;34.95
6851;BME280;3464;42.728;23.296;2023-03-31T11:28:25;94866.64;;;23.02;35.20
6851;BME280;3464;42.728;23.296;2023-03-31T11:31:00;94860.89;;;22.59;35.44
6851;BME280;3464;42.728;23.296;2023-03-31T11:33:37;94865.91;;;22.22;35.93
6851;BME280;3464;42.728;23.296;2023-03-31T11:36:21;94868.45;;;21.29;37.48
6851;BME280;3464;42.728;23.296;2023-03-31T11:45:31;94854.70;;;21.84;36.96
6851;BME280;3464;42.728;23.296;2023-03-31T11:48:03;94853.81;;;21.63;37.50
6851;BME280;3464;42.728;23.296;2023-03-31T11:50:39;94849.90;;;22.17;36.52
6851;BME280;3464;42.728;23.296;2023-03-31T11:53:18;94840.57;;;22.15;36.36
6851;BME280;3464;42.728;23.296;2023-03-31T11:58:53;94831.19;;;21.53;37.39
6851;BME280;3464;42.728;23.296;2023-03-31T12:01:24;94824.02;;;21.82;37.00
6851;BME280;3464;42.728;23.296;2023-03-31T12:04:06;94820.09;;;21.95;36.92
6851;BME280;3464;42.728;23.296;2023-03-31T12:06:38;94816.92;;;21.89;36.65
6851;BME280;3464;42.728;23.296;2023-03-31T12:11:47;94805.99;;;21.95;36.74
6851;BME280;3464;42.728;23.296;2023-03-31T12:14:28;94810.07;;;22.57;36.12
6851;BME280;3464;42.728;23.296;2023-03-31T12:17:15;94803.58;;;22.77;35.75
6851;BME280;3464;42.728;23.296;2023-03-31T12:19:50;94792.66;;;22.92;35.08
6851;BME280;3464;42.728;23.296;2023-03-31T12:22:27;94798.48;;;23.04;35.53
6851;BME280;3464;42.728;23.296;2023-03-31T12:24:55;94792.69;;;23.17;34.96
6851;BME280;3464;42.728;23.296;2023-03-31T12:27:31;94785.43;;;22.73;35.61
6851;BME280;3464;42.728;23.296;2023-03-31T12:30:00;94788.41;;;22.54;35.30
6851;BME280;3464;42.728;23.296;2023-03-31T12:32:28;94777.38;;;22.98;34.98
6851;BME280;3464;42.728;23.296;2023-03-31T12:34:58;94774.86;;;23.15;34.90
6851;BME280;3464;42.728;23.296;2023-03-31T12:40:22;94768.30;;;23.87;33.79
6851;BME280;3464;42.728;23.296;2023-03-31T12:43:16;94758.77;;;23.80;34.11
6851;BME280;3464;42.728;23.296;2023-03-31T12:45:42;94755.34;;;23.47;34.32
6851;BME280;3464;42.728;23.296;2023-03-31T12:48:47;94748.58;;;23.70;33.98
6851;BME280;3464;42.728;23.296;2023-03-31T12:51:02;94736.89;;;24.15;33.41
6851;BME280;3464;42.728;23.296;2023-03-31T12:53:37;94737.38;;;23.88;33.89
6851;BME280;3464;42.728;23.296;2023-03-31T12:56:01;94732.73;;;24.83;33.11
6851;BME280;3464;42.728;23.296;2023-03-31T12:58:43;94733.31;;;24.73;32.94
6851;BME280;3464;42.728;23.296;2023-03-31T13:01:25;94729.05;;;24.80;33.47
6851;BME280;3464;42.728;23.296;2023-03-31T13:06:45;94711.92;;;24.87;32.59
6851;BME280;3464;42.728;23.296;2023-03-31T13:09:44;94714.06;;;24.09;33.69
6851;BME280;3464;42.728;23.296;2023-03-31T13:12:14;94710.06;;;23.78;34.23
6851;BME280;3464;42.728;23.296;2023-03-31T13:14:41;94699.06;;;23.67;33.90
6851;BME280;3464;42.728;23.296;2023-03-31T13:17:12;94690.81;;;23.77;33.99
6851;BME280;3464;42.728;23.296;2023-03-31T13:19:38;94676.65;;;23.78;34.25
6851;BME280;3464;42.728;23.296;2023-03-31T13:22:05;94669.98;;;23.90;34.04
6851;BME280;3464;42.728;23.296;2023-03-31T13:24:32;94662.17;;;24.01;33.72
6851;BME280;3464;42.728;23.296;2023-03-31T13:27:23;94653.25;;;23.75;33.99
6851;BME280;3464;42.728;23.296;2023-03-31T13:32:17;94645.31;;;24.89;33.02
6851;BME280;3464;42.728;23.296;2023-03-31T13:35:03;94637.32;;;24.01;33.71
6851;BME280;3464;42.728;23.296;2023-03-31T13:37:31;94633.92;;;24.08;33.55
6851;BME280;3464;42.728;23.296;2023-03-31T13:40:05;94631.27;;;24.10;33.52
6851;BME280;3464;42.728;23.296;2023-03-31T13:42:39;94629.63;;;24.32;33.83
6851;BME280;3464;42.728;23.296;2023-03-31T13:48:02;94620.48;;;23.63;34.43
6851;BME280;3464;42.728;23.296;2023-03-31T13:53:29;94613.58;;;23.72;34.26
6851;BME280;3464;42.728;23.296;2023-03-31T13:56:21;94609.83;;;23.62;34.53
6851;BME280;3464;42.728;23.296;2023-03-31T14:01:30;94598.61;;;23.64;34.59
6851;BME280;3464;42.728;23.296;2023-03-31T14:04:01;94601.80;;;23.68;34.56
6851;BME280;3464;42.728;23.296;2023-03-31T14:06:36;94601.62;;;23.21;35.15
6851;BME280;3464;42.728;23.296;2023-03-31T14:09:11;94596.60;;;22.94;35.44
6851;BME280;3464;42.728;23.296;2023-03-31T14:11:36;94597.71;;;23.14;35.49
6851;BME280;3464;42.728;23.296;2023-03-31T14:14:12;94597.31;;;23.31;35.07
6851;BME280;3464;42.728;23.296;2023-03-31T14:16:39;94591.77;;;22.88;35.34
6851;BME280;3464;42.728;23.296;2023-03-31T14:19:16;94594.89;;;23.03;35.44
6851;BME280;3464;42.728;23.296;2023-03-31T14:21:42;94593.17;;;22.94;35.30
6851;BME280;3464;42.728;23.296;2023-03-31T14:24:22;94592.26;;;22.95;35.87
6851;BME280;3464;42.728;23.296;2023-03-31T14:26:56;94585.61;;;23.00;35.83
6851;BME280;3464;42.728;23.296;2023-03-31T14:29:43;94580.01;;;22.76;35.73
6851;BME280;3464;42.728;23.296;2023-03-31T14:37:28;94567.37;;;22.54;36.30
6851;BME280;3464;42.728;23.296;2023-03-31T14:39:55;94566.34;;;22.58;36.49
6851;BME280;3464;42.728;23.296;2023-03-31T14:42:24;94558.64;;;22.67;36.25
6851;BME280;3464;42.728;23.296;2023-03-31T14:44:53;94560.02;;;22.20;36.74
6851;BME280;3464;42.728;23.296;2023-03-31T14:47:20;94552.80;;;22.20;36.77
6851;BME280;3464;42.728;23.296;2023-03-31T14:49:46;94551.45;;;22.47;36.57
6851;BME280;3464;42.728;23.296;2023-03-31T14:52:16;94555.33;;;21.84;37.03
6851;BME280;3464;42.728;23.296;2023-03-31T14:54:44;94557.80;;;21.77;37.33
6851;BME280;3464;42.728;23.296;2023-03-31T14:57:10;94550.63;;;21.18;38.23
6851;BME280;3464;42.728;23.296;2023-03-31T14:59:37;94548.37;;;21.21;38.32
6851;BME280;3464;42.728;23.296;2023-03-31T15:02:03;94545.83;;;21.01;38.60
6851;BME280;3464;42.728;23.296;2023-03-31T15:04:38;94542.63;;;21.25;38.55
6851;BME280;3464;42.728;23.296;2023-03-31T15:06:58;94536.02;;;21.77;37.70
6851;BME280;3464;42.728;23.296;2023-03-31T15:09:27;94532.43;;;21.90;37.76
6851;BME280;3464;42.728;23.296;2023-03-31T15:11:53;94537.39;;;21.84;37.67
6851;BME280;3464;42.728;23.296;2023-03-31T15:14:19;94536.53;;;21.56;37.91
6851;BME280;3464;42.728;23.296;2023-03-31T15:16:46;94543.98;;;21.33;38.31
6851;BME280;3464;42.728;23.296;2023-03-31T15:19:19;94537.39;;;21.75;37.90
6851;BME280;3464;42.728;23.296;2023-03-31T15:21:45;94537.55;;;21.71;37.88
6851;BME280;3464;42.728;23.296;2023-03-31T15:24:12;94532.47;;;21.61;38.11
6851;BME280;3464;42.728;23.296;2023-03-31T15:26:45;94535.55;;;21.87;37.70
6851;BME280;3464;42.728;23.296;2023-03-31T15:29:14;94537.77;;;21.48;37.94
6851;BME280;3464;42.728;23.296;2023-03-31T15:31:38;94533.73;;;21.43;38.11
6851;BME280;3464;42.728;23.296;2023-03-31T15:36:45;94525.59;;;21.99;37.14
6851;BME280;3464;42.728;23.296;2023-03-31T15:39:12;94523.41;;;22.00;37.49
6851;BME280;3464;42.728;23.296;2023-03-31T15:41:38;94518.58;;;21.47;37.95
6851;BME280;3464;42.728;23.296;2023-03-31T15:44:06;94523.17;;;21.59;37.67
6851;BME280;3464;42.728;23.296;2023-03-31T15:47:27;94527.36;;;21.80;37.52
6851;BME280;3464;42.728;23.296;2023-03-31T15:49:37;94526.94;;;21.70;37.82
6851;BME280;3464;42.728;23.296;2023-03-31T15:52:03;94514.47;;;21.90;37.46
6851;BME280;3464;42.728;23.296;2023-03-31T15:54:39;94524.60;;;21.83;37.49
6851;BME280;3464;42.728;23.296;2023-03-31T15:57:07;94517.17;;;21.87;37.46
6851;BME280;3464;42.728;23.296;2023-03-31T15:59:44;94510.48;;;21.93;37.23
6851;BME280;3464;42.728;23.296;2023-03-31T16:02:12;94516.47;;;21.65;37.92
6851;BME280;3464;42.728;23.296;2023-03-31T16:04:39;94519.16;;;21.53;38.16
6851;BME280;3464;42.728;23.296;2023-03-31T16:07:08;94523.27;;;21.10;38.46
6851;BME280;3464;42.728;23.296;2023-03-31T16:09:51;94525.48;;;21.08;38.48
6851;BME280;3464;42.728;23.296;2023-03-31T16:12:38;94523.64;;;21.11;38.42
6851;BME280;3464;42.728;23.296;2023-03-31T16:15:09;94512.67;;;21.28;38.18
6851;BME280;3464;42.728;23.296;2023-03-31T16:17:39;94514.57;;;21.04;38.66
6851;BME280;3464;42.728;23.296;2023-03-31T16:20:08;94514.51;;;21.05;38.52
6851;BME280;3464;42.728;23.296;2023-03-31T16:22:39;94518.58;;;20.79;39.07
6851;BME280;3464;42.728;23.296;2023-03-31T16:25:07;94514.65;;;20.52;39.59
6851;BME280;3464;42.728;23.296;2023-03-31T16:27:35;94511.91;;;20.46;39.56
6851;BME280;3464;42.728;23.296;2023-03-31T16:30:07;94513.72;;;20.54;39.23
6851;BME280;3464;42.728;23.296;2023-03-31T16:32:33;94512.50;;;20.42;39.50
6851;BME280;3464;42.728;23.296;2023-03-31T16:35:02;94522.20;;;20.34;39.65
6851;BME280;3464;42.728;23.296;2023-03-31T16:37:28;94523.46;;;20.14;40.04
6851;BME280;3464;42.728;23.296;2023-03-31T16:39:55;94518.11;;;20.20;39.98
6851;BME280;3464;42.728;23.296;2023-03-31T16:42:22;94527.01;;;20.10;40.03
6851;BME280;3464;42.728;23.296;2023-03-31T16:44:58;94518.55;;;19.98;40.50
6851;BME280;3464;42.728;23.296;2023-03-31T16:47:27;94514.43;;;19.84;40.67
6851;BME280;3464;42.728;23.296;2023-03-31T16:49:55;94514.63;;;19.89;40.68
6851;BME280;3464;42.728;23.296;2023-03-31T16:52:24;94515.86;;;19.69;40.91
6851;BME280;3464;42.728;23.296;2023-03-31T16:54:52;94509.06;;;19.68;41.01
6851;BME280;3464;42.728;23.296;2023-03-31T16:57:19;94497.76;;;19.74;41.09
6851;BME280;3464;42.728;23.296;2023-03-31T16:59:47;94504.20;;;19.73;41.22
6851;BME280;3464;42.728;23.296;2023-03-31T17:02:14;94502.38;;;19.65;41.19
6851;BME280;3464;42.728;23.296;2023-03-31T17:04:44;94499.72;;;19.57;41.54
6851;BME280;3464;42.728;23.296;2023-03-31T17:07:11;94500.53;;;19.69;41.35
6851;BME280;3464;42.728;23.296;2023-03-31T17:09:38;94507.50;;;19.53;41.64
6851;BME280;3464;42.728;23.296;2023-03-31T17:12:05;94511.77;;;19.42;41.98
6851;BME280;3464;42.728;23.296;2023-03-31T17:14:33;94517.52;;;19.36;42.12
6851;BME280;3464;42.728;23.296;2023-03-31T17:16:59;94523.09;;;19.00;42.89
6851;BME280;3464;42.728;23.296;2023-03-31T17:19:26;94527.78;;;19.11;42.72
6851;BME280;3464;42.728;23.296;2023-03-31T17:21:53;94524.64;;;19.04;42.82
6851;BME280;3464;42.728;23.296;2023-03-31T17:24:20;94522.98;;;19.03;42.77
6851;BME280;3464;42.728;23.296;2023-03-31T17:26:48;94518.68;;;18.92;43.11
6851;BME280;3464;42.728;23.296;2023-03-31T17:29:15;94509.17;;;18.97;43.05
6851;BME280;3464;42.728;23.296;2023-03-31T17:31:46;94504.55;;;18.83;43.43
6851;BME280;3464;42.728;23.296;2023-03-31T17:34:13;94509.38;;;18.67;43.96
6851;BME280;3464;42.728;23.296;2023-03-31T17:36:40;94507.61;;;18.69;43.96
6851;BME280;3464;42.728;23.296;2023-03-31T17:39:08;94504.31;;;18.66;44.43
6851;BME280;3464;42.728;23.296;2023-03-31T17:41:35;94507.47;;;18.35;44.77
6851;BME280;3464;42.728;23.296;2023-03-31T17:44:02;94512.24;;;18.32;44.87
6851;BME280;3464;42.728;23.296;2023-03-31T17:46:29;94511.97;;;18.27;45.12
6851;BME280;3464;42.728;23.296;2023-03-31T17:48:56;94516.53;;;18.31;45.16
6851;BME280;3464;42.728;23.296;2023-03-31T17:51:23;94510.00;;;18.10;45.44
6851;BME280;3464;42.728;23.296;2023-03-31T17:53:50;94511.42;;;18.05;45.89
6851;BME280;3464;42.728;23.296;2023-03-31T17:56:16;94509.72;;;17.93;46.19
6851;BME280;3464;42.728;23.296;2023-03-31T17:58:44;94505.77;;;17.96;46.14
6851;BME280;3464;42.728;23.296;2023-03-31T18:01:12;94515.52;;;17.97;46.31
6851;BME280;3464;42.728;23.296;2023-03-31T18:03:38;94512.74;;;18.04;46.09
6851;BME280;3464;42.728;23.296;2023-03-31T18:06:08;94514.63;;;17.98;46.30
6851;BME280;3464;42.728;23.296;2023-03-31T18:08:43;94514.44;;;17.91;46.20
6851;BME280;3464;42.728;23.296;2023-03-31T18:11:11;94517.64;;;18.23;45.74
6851;BME280;3464;42.728;23.296;2023-03-31T18:13:38;94510.98;;;18.06;46.10